sensor_id;sensor_type;location;lat;lon;timestamp;temperature;humidity
6738;DHT22;3406;49.902;8.596;2024-02-23T00:02:10;9.30;77.80
6738;DHT22;3406;49.902;8.596;2024-02-23T00:04:37;9.30;77.10
6738;DHT22;3406;49.902;8.596;2024-02-23T00:07:05;9.30;76.60
6738;DHT22;3406;49.902;8.596;2024-02-23T00:09:31;9.30;75.80
6738;DHT22;3406;49.902;8.596;2024-02-23T00:11:58;9.30;75.40
6738;DHT22;3406;49.902;8.596;2024-02-23T00:14:25;9.20;75.10
6738;DHT22;3406;49.902;8.596;2024-02-23T00:16:51;9.20;74.80
6738;DHT22;3406;49.902;8.596;2024-02-23T00:19:18;9.20;74.50
6738;DHT22;3406;49.902;8.596;2024-02-23T00:21:45;9.20;74.20
6738;DHT22;3406;49.902;8.596;2024-02-23T00:24:16;9.10;73.70
6738;DHT22;3406;49.902;8.596;2024-02-23T00:26:43;9.10;73.70
6738;DHT22;3406;49.902;8.596;2024-02-23T00:29:10;9.10;74.40
6738;DHT22;3406;49.902;8.596;2024-02-23T00:31:38;9.10;73.80
6738;DHT22;3406;49.902;8.596;2024-02-23T00:34:06;9.10;73.90
6738;DHT22;3406;49.902;8.596;2024-02-23T00:36:35;9.00;73.90
6738;DHT22;3406;49.902;8.596;2024-02-23T00:39:02;9.00;74.10
6738;DHT22;3406;49.902;8.596;2024-02-23T00:41:30;9.00;74.20
6738;DHT22;3406;49.902;8.596;2024-02-23T00:43:57;9.00;74.30
6738;DHT22;3406;49.902;8.596;2024-02-23T00:46:24;8.90;75.00
6738;DHT22;3406;49.902;8.596;2024-02-23T00:48:49;8.90;74.60
6738;DHT22;3406;49.902;8.596;2024-02-23T00:51:16;8.90;75.10
6738;DHT22;3406;49.902;8.596;2024-02-23T00:53:43;8.80;75.50
6738;DHT22;3406;49.902;8.596;2024-02-23T00:56:09;8.80;76.10
6738;DHT22;3406;49.902;8.596;2024-02-23T00:58:37;8.70;76.60
6738;DHT22;3406;49.902;8.596;2024-02-23T01:01:04;8.60;77.10
6738;DHT22;3406;49.902;8.596;2024-02-23T01:03:31;8.50;77.30
6738;DHT22;3406;49.902;8.596;2024-02-23T01:05:58;8.50;77.60
6738;DHT22;3406;49.902;8.596;2024-02-23T01:08:24;8.40;77.70
6738;DHT22;3406;49.902;8.596;2024-02-23T01:10:51;8.40;77.80
6738;DHT22;3406;49.902;8.596;2024-02-23T01:13:18;8.40;77.90
6738;DHT22;3406;49.902;8.596;2024-02-23T01:15:46;8.40;77.90
6738;DHT22;3406;49.902;8.596;2024-02-23T01:18:12;8.30;77.90
6738;DHT22;3406;49.902;8.596;2024-02-23T01:20:39;8.30;78.00
6738;DHT22;3406;49.902;8.596;2024-02-23T01:23:06;8.30;78.20
6738;DHT22;3406;49.902;8.596;2024-02-23T01:25:33;8.30;78.30
6738;DHT22;3406;49.902;8.596;2024-02-23T01:28:00;8.20;78.30
6738;DHT22;3406;49.902;8.596;2024-02-23T01:30:27;8.20;78.40
6738;DHT22;3406;49.902;8.596;2024-02-23T01:32:55;8.10;78.40
6738;DHT22;3406;49.902;8.596;2024-02-23T01:35:21;8.00;78.60
6738;DHT22;3406;49.902;8.596;2024-02-23T01:37:48;8.00;78.90
6738;DHT22;3406;49.902;8.596;2024-02-23T01:40:15;7.90;79.10
6738;DHT22;3406;49.902;8.596;2024-02-23T01:42:41;7.80;79.30
6738;DHT22;3406;49.902;8.596;2024-02-23T01:45:08;7.80;79.70
6738;DHT22;3406;49.902;8.596;2024-02-23T01:47:35;7.70;79.90
6738;DHT22;3406;49.902;8.596;2024-02-23T01:50:04;7.70;80.20
6738;DHT22;3406;49.902;8.596;2024-02-23T01:52:33;7.70;80.60
6738;DHT22;3406;49.902;8.596;2024-02-23T01:55:00;7.60;80.80
6738;DHT22;3406;49.902;8.596;2024-02-23T01:57:28;7.60;80.90
6738;DHT22;3406;49.902;8.596;2024-02-23T01:59:55;7.60;80.90
6738;DHT22;3406;49.902;8.596;2024-02-23T02:02:21;7.60;80.80
6738;DHT22;3406;49.902;8.596;2024-02-23T02:04:48;7.60;80.50
6738;DHT22;3406;49.902;8.596;2024-02-23T02:07:16;7.60;80.50
6738;DHT22;3406;49.902;8.596;2024-02-23T02:09:45;7.60;80.40
6738;DHT22;3406;49.902;8.596;2024-02-23T02:12:12;7.60;80.20
6738;DHT22;3406;49.902;8.596;2024-02-23T02:14:38;7.60;80.10
6738;DHT22;3406;49.902;8.596;2024-02-23T02:17:05;7.60;79.90
6738;DHT22;3406;49.902;8.596;2024-02-23T02:19:32;7.50;79.60
6738;DHT22;3406;49.902;8.596;2024-02-23T02:21:59;7.50;79.30
6738;DHT22;3406;49.902;8.596;2024-02-23T02:24:27;7.50;79.10
6738;DHT22;3406;49.902;8.596;2024-02-23T02:26:53;7.50;78.90
6738;DHT22;3406;49.902;8.596;2024-02-23T02:29:20;7.40;78.70
6738;DHT22;3406;49.902;8.596;2024-02-23T02:31:47;7.40;78.60
6738;DHT22;3406;49.902;8.596;2024-02-23T02:34:13;7.30;78.40
6738;DHT22;3406;49.902;8.596;2024-02-23T02:36:40;7.30;78.40
6738;DHT22;3406;49.902;8.596;2024-02-23T02:39:07;7.20;78.40
6738;DHT22;3406;49.902;8.596;2024-02-23T02:41:35;7.20;78.40
6738;DHT22;3406;49.902;8.596;2024-02-23T02:44:01;7.20;78.50
6738;DHT22;3406;49.902;8.596;2024-02-23T02:46:28;7.10;78.30
6738;DHT22;3406;49.902;8.596;2024-02-23T02:48:55;7.10;78.40
6738;DHT22;3406;49.902;8.596;2024-02-23T02:51:21;7.00;78.40
6738;DHT22;3406;49.902;8.596;2024-02-23T02:53:48;7.00;78.60
6738;DHT22;3406;49.902;8.596;2024-02-23T02:56:15;7.00;78.60
6738;DHT22;3406;49.902;8.596;2024-02-23T02:58:43;6.90;78.50
6738;DHT22;3406;49.902;8.596;2024-02-23T03:01:09;6.90;78.70
6738;DHT22;3406;49.902;8.596;2024-02-23T03:03:36;6.90;78.70
6738;DHT22;3406;49.902;8.596;2024-02-23T03:06:03;6.90;78.80
6738;DHT22;3406;49.902;8.596;2024-02-23T03:08:31;6.90;78.80
6738;DHT22;3406;49.902;8.596;2024-02-23T03:10:57;6.90;78.80
6738;DHT22;3406;49.902;8.596;2024-02-23T03:13:24;6.90;78.90
6738;DHT22;3406;49.902;8.596;2024-02-23T03:15:52;6.90;79.10
6738;DHT22;3406;49.902;8.596;2024-02-23T03:18:18;6.90;79.40
6738;DHT22;3406;49.902;8.596;2024-02-23T03:20:45;6.90;79.60
6738;DHT22;3406;49.902;8.596;2024-02-23T03:23:12;6.90;79.60
6738;DHT22;3406;49.902;8.596;2024-02-23T03:25:39;6.90;79.90
6738;DHT22;3406;49.902;8.596;2024-02-23T03:28:05;6.90;80.00
6738;DHT22;3406;49.902;8.596;2024-02-23T03:30:32;6.90;80.10
6738;DHT22;3406;49.902;8.596;2024-02-23T03:33:00;6.80;80.00
6738;DHT22;3406;49.902;8.596;2024-02-23T03:35:27;6.80;80.20
6738;DHT22;3406;49.902;8.596;2024-02-23T03:37:53;6.80;80.40
6738;DHT22;3406;49.902;8.596;2024-02-23T03:40:19;6.80;80.60
6738;DHT22;3406;49.902;8.596;2024-02-23T03:42:45;6.80;80.80
6738;DHT22;3406;49.902;8.596;2024-02-23T03:45:12;6.70;80.90
6738;DHT22;3406;49.902;8.596;2024-02-23T03:47:39;6.70;81.10
6738;DHT22;3406;49.902;8.596;2024-02-23T03:50:08;6.70;81.20
6738;DHT22;3406;49.902;8.596;2024-02-23T03:52:35;6.70;81.30
6738;DHT22;3406;49.902;8.596;2024-02-23T03:55:02;6.70;81.30
6738;DHT22;3406;49.902;8.596;2024-02-23T03:57:29;6.70;81.30
6738;DHT22;3406;49.902;8.596;2024-02-23T03:59:56;6.70;81.40
6738;DHT22;3406;49.902;8.596;2024-02-23T04:02:23;6.70;81.50
6738;DHT22;3406;49.902;8.596;2024-02-23T04:04:49;6.60;81.30
6738;DHT22;3406;49.902;8.596;2024-02-23T04:07:17;6.60;81.30
6738;DHT22;3406;49.902;8.596;2024-02-23T04:09:44;6.60;81.40
6738;DHT22;3406;49.902;8.596;2024-02-23T04:12:11;6.60;81.40
6738;DHT22;3406;49.902;8.596;2024-02-23T04:14:37;6.50;81.30
6738;DHT22;3406;49.902;8.596;2024-02-23T04:17:05;6.50;81.20
6738;DHT22;3406;49.902;8.596;2024-02-23T04:19:32;6.50;81.20
6738;DHT22;3406;49.902;8.596;2024-02-23T04:21:59;6.50;81.20
6738;DHT22;3406;49.902;8.596;2024-02-23T04:24:27;6.50;81.20
6738;DHT22;3406;49.902;8.596;2024-02-23T04:26:53;6.50;81.30
6738;DHT22;3406;49.902;8.596;2024-02-23T04:29:20;6.40;81.30
6738;DHT22;3406;49.902;8.596;2024-02-23T04:31:47;6.40;81.40
6738;DHT22;3406;49.902;8.596;2024-02-23T04:34:14;6.40;81.60
6738;DHT22;3406;49.902;8.596;2024-02-23T04:36:41;6.30;81.70
6738;DHT22;3406;49.902;8.596;2024-02-23T04:39:08;6.30;81.90
6738;DHT22;3406;49.902;8.596;2024-02-23T04:41:36;6.30;82.10
6738;DHT22;3406;49.902;8.596;2024-02-23T04:44:03;6.30;82.30
6738;DHT22;3406;49.902;8.596;2024-02-23T04:46:31;6.30;82.40
6738;DHT22;3406;49.902;8.596;2024-02-23T04:48:59;6.20;82.40
6738;DHT22;3406;49.902;8.596;2024-02-23T04:51:26;6.20;82.70
6738;DHT22;3406;49.902;8.596;2024-02-23T04:53:53;6.20;82.80
6738;DHT22;3406;49.902;8.596;2024-02-23T04:56:19;6.10;82.80
6738;DHT22;3406;49.902;8.596;2024-02-23T04:58:48;6.10;83.10
6738;DHT22;3406;49.902;8.596;2024-02-23T05:01:15;6.10;83.30
6738;DHT22;3406;49.902;8.596;2024-02-23T05:03:41;6.00;83.30
6738;DHT22;3406;49.902;8.596;2024-02-23T05:06:08;6.00;83.60
6738;DHT22;3406;49.902;8.596;2024-02-23T05:08:35;6.00;84.50
6738;DHT22;3406;49.902;8.596;2024-02-23T05:11:01;6.00;84.00
6738;DHT22;3406;49.902;8.596;2024-02-23T05:13:29;6.00;84.10
6738;DHT22;3406;49.902;8.596;2024-02-23T05:15:57;5.90;84.10
6738;DHT22;3406;49.902;8.596;2024-02-23T05:18:23;5.90;84.30
6738;DHT22;3406;49.902;8.596;2024-02-23T05:20:50;5.90;84.40
6738;DHT22;3406;49.902;8.596;2024-02-23T05:23:16;5.90;84.60
6738;DHT22;3406;49.902;8.596;2024-02-23T05:25:42;5.90;84.70
6738;DHT22;3406;49.902;8.596;2024-02-23T05:28:09;5.90;84.90
6738;DHT22;3406;49.902;8.596;2024-02-23T05:30:35;5.90;85.10
6738;DHT22;3406;49.902;8.596;2024-02-23T05:33:04;5.90;85.30
6738;DHT22;3406;49.902;8.596;2024-02-23T05:35:30;5.90;85.30
6738;DHT22;3406;49.902;8.596;2024-02-23T05:37:57;6.00;85.50
6738;DHT22;3406;49.902;8.596;2024-02-23T05:40:24;6.00;85.60
6738;DHT22;3406;49.902;8.596;2024-02-23T05:42:50;6.00;85.60
6738;DHT22;3406;49.902;8.596;2024-02-23T05:45:17;6.00;85.60
6738;DHT22;3406;49.902;8.596;2024-02-23T05:47:44;6.00;85.70
6738;DHT22;3406;49.902;8.596;2024-02-23T05:50:12;6.00;85.80
6738;DHT22;3406;49.902;8.596;2024-02-23T05:52:39;6.00;85.80
6738;DHT22;3406;49.902;8.596;2024-02-23T05:55:06;6.00;85.90
6738;DHT22;3406;49.902;8.596;2024-02-23T05:57:33;6.00;85.90
6738;DHT22;3406;49.902;8.596;2024-02-23T05:59:59;6.00;86.00
6738;DHT22;3406;49.902;8.596;2024-02-23T06:02:26;5.90;85.90
6738;DHT22;3406;49.902;8.596;2024-02-23T06:04:53;6.00;86.10
6738;DHT22;3406;49.902;8.596;2024-02-23T06:07:21;6.00;86.50
6738;DHT22;3406;49.902;8.596;2024-02-23T06:09:54;6.00;86.60
6738;DHT22;3406;49.902;8.596;2024-02-23T06:12:21;6.10;86.60
6738;DHT22;3406;49.902;8.596;2024-02-23T06:14:47;6.10;86.40
6738;DHT22;3406;49.902;8.596;2024-02-23T06:17:14;6.10;86.30
6738;DHT22;3406;49.902;8.596;2024-02-23T06:19:41;6.20;86.20
6738;DHT22;3406;49.902;8.596;2024-02-23T06:22:07;6.30;86.00
6738;DHT22;3406;49.902;8.596;2024-02-23T06:24:36;6.30;85.80
6738;DHT22;3406;49.902;8.596;2024-02-23T06:27:03;6.40;85.60
6738;DHT22;3406;49.902;8.596;2024-02-23T06:29:30;6.40;85.30
6738;DHT22;3406;49.902;8.596;2024-02-23T06:31:57;6.40;85.00
6738;DHT22;3406;49.902;8.596;2024-02-23T06:34:23;6.50;84.80
6738;DHT22;3406;49.902;8.596;2024-02-23T06:36:50;6.50;84.60
6738;DHT22;3406;49.902;8.596;2024-02-23T06:39:17;6.50;84.50
6738;DHT22;3406;49.902;8.596;2024-02-23T06:41:46;6.50;84.20
6738;DHT22;3406;49.902;8.596;2024-02-23T06:44:13;6.60;84.20
6738;DHT22;3406;49.902;8.596;2024-02-23T06:46:39;6.60;83.90
6738;DHT22;3406;49.902;8.596;2024-02-23T06:49:06;6.60;83.60
6738;DHT22;3406;49.902;8.596;2024-02-23T06:51:33;6.60;83.10
6738;DHT22;3406;49.902;8.596;2024-02-23T06:54:00;6.70;82.80
6738;DHT22;3406;49.902;8.596;2024-02-23T06:56:26;6.70;82.20
6738;DHT22;3406;49.902;8.596;2024-02-23T06:58:54;6.70;81.90
6738;DHT22;3406;49.902;8.596;2024-02-23T07:01:21;6.70;81.60
6738;DHT22;3406;49.902;8.596;2024-02-23T07:03:48;6.70;81.60
6738;DHT22;3406;49.902;8.596;2024-02-23T07:06:16;6.70;81.30
6738;DHT22;3406;49.902;8.596;2024-02-23T07:08:43;6.80;81.30
6738;DHT22;3406;49.902;8.596;2024-02-23T07:11:11;6.80;81.20
6738;DHT22;3406;49.902;8.596;2024-02-23T07:13:37;6.80;80.90
6738;DHT22;3406;49.902;8.596;2024-02-23T07:16:06;6.90;80.70
6738;DHT22;3406;49.902;8.596;2024-02-23T07:18:33;6.90;80.40
6738;DHT22;3406;49.902;8.596;2024-02-23T07:21:00;6.90;80.00
6738;DHT22;3406;49.902;8.596;2024-02-23T07:23:27;6.90;79.40
6738;DHT22;3406;49.902;8.596;2024-02-23T07:25:53;7.00;79.20
6738;DHT22;3406;49.902;8.596;2024-02-23T07:28:20;7.00;79.10
6738;DHT22;3406;49.902;8.596;2024-02-23T07:30:48;7.00;78.80
6738;DHT22;3406;49.902;8.596;2024-02-23T07:33:16;7.00;78.60
6738;DHT22;3406;49.902;8.596;2024-02-23T07:35:43;7.00;78.30
6738;DHT22;3406;49.902;8.596;2024-02-23T07:38:09;7.00;78.20
6738;DHT22;3406;49.902;8.596;2024-02-23T07:40:36;6.90;78.00
6738;DHT22;3406;49.902;8.596;2024-02-23T07:43:03;6.90;78.00
6738;DHT22;3406;49.902;8.596;2024-02-23T07:45:30;6.90;78.00
6738;DHT22;3406;49.902;8.596;2024-02-23T07:47:58;6.80;78.00
6738;DHT22;3406;49.902;8.596;2024-02-23T07:50:26;6.80;77.90
6738;DHT22;3406;49.902;8.596;2024-02-23T07:52:53;6.80;77.90
6738;DHT22;3406;49.902;8.596;2024-02-23T07:55:20;6.80;77.80
6738;DHT22;3406;49.902;8.596;2024-02-23T07:57:47;6.80;77.70
6738;DHT22;3406;49.902;8.596;2024-02-23T08:00:14;6.80;77.60
6738;DHT22;3406;49.902;8.596;2024-02-23T08:02:41;6.80;77.50
6738;DHT22;3406;49.902;8.596;2024-02-23T08:05:08;6.90;77.60
6738;DHT22;3406;49.902;8.596;2024-02-23T08:07:36;7.10;77.70
6738;DHT22;3406;49.902;8.596;2024-02-23T08:10:03;7.20;77.50
6738;DHT22;3406;49.902;8.596;2024-02-23T08:12:30;7.30;77.20
6738;DHT22;3406;49.902;8.596;2024-02-23T08:14:57;7.30;76.90
6738;DHT22;3406;49.902;8.596;2024-02-23T08:17:23;7.40;76.80
6738;DHT22;3406;49.902;8.596;2024-02-23T08:19:51;7.40;77.30
6738;DHT22;3406;49.902;8.596;2024-02-23T08:22:18;7.50;76.60
6738;DHT22;3406;49.902;8.596;2024-02-23T08:24:46;7.50;76.50
6738;DHT22;3406;49.902;8.596;2024-02-23T08:27:12;7.50;76.50
6738;DHT22;3406;49.902;8.596;2024-02-23T08:29:39;7.50;76.50
6738;DHT22;3406;49.902;8.596;2024-02-23T08:32:07;7.50;76.60
6738;DHT22;3406;49.902;8.596;2024-02-23T08:34:33;7.60;76.90
6738;DHT22;3406;49.902;8.596;2024-02-23T08:37:00;7.60;76.70
6738;DHT22;3406;49.902;8.596;2024-02-23T08:39:27;7.70;76.60
6738;DHT22;3406;49.902;8.596;2024-02-23T08:41:56;7.70;76.50
6738;DHT22;3406;49.902;8.596;2024-02-23T08:44:22;7.70;76.10
6738;DHT22;3406;49.902;8.596;2024-02-23T08:46:49;7.70;76.10
6738;DHT22;3406;49.902;8.596;2024-02-23T08:49:16;7.80;76.00
6738;DHT22;3406;49.902;8.596;2024-02-23T08:51:42;7.80;75.80
6738;DHT22;3406;49.902;8.596;2024-02-23T08:54:09;7.80;75.90
6738;DHT22;3406;49.902;8.596;2024-02-23T08:56:37;7.90;75.90
6738;DHT22;3406;49.902;8.596;2024-02-23T08:59:05;7.90;75.80
6738;DHT22;3406;49.902;8.596;2024-02-23T09:01:32;7.90;75.70
6738;DHT22;3406;49.902;8.596;2024-02-23T09:03:58;8.00;75.50
6738;DHT22;3406;49.902;8.596;2024-02-23T09:06:25;8.00;76.20
6738;DHT22;3406;49.902;8.596;2024-02-23T09:08:52;8.10;75.60
6738;DHT22;3406;49.902;8.596;2024-02-23T09:11:18;8.20;75.50
6738;DHT22;3406;49.902;8.596;2024-02-23T09:13:45;8.20;75.10
6738;DHT22;3406;49.902;8.596;2024-02-23T09:16:13;8.20;75.00
6738;DHT22;3406;49.902;8.596;2024-02-23T09:18:40;8.20;74.80
6738;DHT22;3406;49.902;8.596;2024-02-23T09:21:06;8.20;74.40
6738;DHT22;3406;49.902;8.596;2024-02-23T09:23:33;8.20;74.30
6738;DHT22;3406;49.902;8.596;2024-02-23T09:26:00;8.20;74.30
6738;DHT22;3406;49.902;8.596;2024-02-23T09:28:26;8.20;74.20
6738;DHT22;3406;49.902;8.596;2024-02-23T09:30:53;8.30;74.20
6738;DHT22;3406;49.902;8.596;2024-02-23T09:33:21;8.30;74.20
6738;DHT22;3406;49.902;8.596;2024-02-23T09:35:48;8.40;73.90
6738;DHT22;3406;49.902;8.596;2024-02-23T09:38:14;8.30;73.40
6738;DHT22;3406;49.902;8.596;2024-02-23T09:40:41;8.30;73.20
6738;DHT22;3406;49.902;8.596;2024-02-23T09:43:08;8.30;73.20
6738;DHT22;3406;49.902;8.596;2024-02-23T09:45:38;8.30;73.10
6738;DHT22;3406;49.902;8.596;2024-02-23T09:48:05;8.40;73.10
6738;DHT22;3406;49.902;8.596;2024-02-23T09:50:35;8.40;73.00
6738;DHT22;3406;49.902;8.596;2024-02-23T09:53:04;8.40;72.60
6738;DHT22;3406;49.902;8.596;2024-02-23T09:55:33;8.40;72.50
6738;DHT22;3406;49.902;8.596;2024-02-23T09:58:00;8.50;72.50
6738;DHT22;3406;49.902;8.596;2024-02-23T10:00:29;8.50;72.20
6738;DHT22;3406;49.902;8.596;2024-02-23T10:02:57;8.40;71.80
6738;DHT22;3406;49.902;8.596;2024-02-23T10:05:29;8.50;71.70
6738;DHT22;3406;49.902;8.596;2024-02-23T10:07:58;8.50;71.60
6738;DHT22;3406;49.902;8.596;2024-02-23T10:10:25;8.50;71.50
6738;DHT22;3406;49.902;8.596;2024-02-23T10:12:55;8.50;71.40
6738;DHT22;3406;49.902;8.596;2024-02-23T10:15:22;8.60;71.60
6738;DHT22;3406;49.902;8.596;2024-02-23T10:17:48;8.60;71.30
6738;DHT22;3406;49.902;8.596;2024-02-23T10:20:15;8.70;71.20
6738;DHT22;3406;49.902;8.596;2024-02-23T10:22:43;8.70;71.10
6738;DHT22;3406;49.902;8.596;2024-02-23T10:25:12;8.70;71.10
6738;DHT22;3406;49.902;8.596;2024-02-23T10:27:40;8.80;71.00
6738;DHT22;3406;49.902;8.596;2024-02-23T10:30:08;8.80;70.80
6738;DHT22;3406;49.902;8.596;2024-02-23T10:32:38;8.80;70.80
6738;DHT22;3406;49.902;8.596;2024-02-23T10:35:08;8.80;70.90
6738;DHT22;3406;49.902;8.596;2024-02-23T10:37:36;8.80;70.90
6738;DHT22;3406;49.902;8.596;2024-02-23T10:40:04;8.90;71.00
6738;DHT22;3406;49.902;8.596;2024-02-23T10:42:37;8.90;71.00
6738;DHT22;3406;49.902;8.596;2024-02-23T10:45:05;8.90;71.20
6738;DHT22;3406;49.902;8.596;2024-02-23T10:47:34;9.00;71.30
6738;DHT22;3406;49.902;8.596;2024-02-23T10:50:02;9.10;71.40
6738;DHT22;3406;49.902;8.596;2024-02-23T10:52:31;9.30;71.30
6738;DHT22;3406;49.902;8.596;2024-02-23T10:55:00;9.40;71.00
6738;DHT22;3406;49.902;8.596;2024-02-23T10:57:30;9.40;70.40
6738;DHT22;3406;49.902;8.596;2024-02-23T10:59:58;9.40;70.00
6738;DHT22;3406;49.902;8.596;2024-02-23T11:02:27;9.40;69.90
6738;DHT22;3406;49.902;8.596;2024-02-23T11:04:55;9.50;70.00
6738;DHT22;3406;49.902;8.596;2024-02-23T11:07:22;9.60;70.40
6738;DHT22;3406;49.902;8.596;2024-02-23T11:09:52;9.60;70.60
6738;DHT22;3406;49.902;8.596;2024-02-23T11:12:23;9.60;70.80
6738;DHT22;3406;49.902;8.596;2024-02-23T11:14:50;9.50;70.90
6738;DHT22;3406;49.902;8.596;2024-02-23T11:17:19;9.40;71.10
6738;DHT22;3406;49.902;8.596;2024-02-23T11:19:49;9.40;71.60
6738;DHT22;3406;49.902;8.596;2024-02-23T11:22:15;9.30;71.90
6738;DHT22;3406;49.902;8.596;2024-02-23T11:24:43;9.30;72.10
6738;DHT22;3406;49.902;8.596;2024-02-23T11:27:13;9.20;72.20
6738;DHT22;3406;49.902;8.596;2024-02-23T11:29:43;9.30;72.60
6738;DHT22;3406;49.902;8.596;2024-02-23T11:32:13;9.20;72.70
6738;DHT22;3406;49.902;8.596;2024-02-23T11:34:41;9.20;73.00
6738;DHT22;3406;49.902;8.596;2024-02-23T11:37:09;9.20;73.30
6738;DHT22;3406;49.902;8.596;2024-02-23T11:39:37;9.20;73.60
6738;DHT22;3406;49.902;8.596;2024-02-23T11:42:04;9.20;73.80
6738;DHT22;3406;49.902;8.596;2024-02-23T11:44:32;9.30;74.00
6738;DHT22;3406;49.902;8.596;2024-02-23T11:46:59;9.30;73.80
6738;DHT22;3406;49.902;8.596;2024-02-23T11:49:27;9.30;73.80
6738;DHT22;3406;49.902;8.596;2024-02-23T11:51:56;9.30;73.70
6738;DHT22;3406;49.902;8.596;2024-02-23T11:54:22;9.40;74.00
6738;DHT22;3406;49.902;8.596;2024-02-23T11:56:49;9.50;74.10
6738;DHT22;3406;49.902;8.596;2024-02-23T11:59:18;9.60;74.00
6738;DHT22;3406;49.902;8.596;2024-02-23T12:01:45;9.60;73.90
6738;DHT22;3406;49.902;8.596;2024-02-23T12:04:13;9.60;73.80
6738;DHT22;3406;49.902;8.596;2024-02-23T12:06:41;9.50;73.40
6738;DHT22;3406;49.902;8.596;2024-02-23T12:09:10;9.50;73.40
6738;DHT22;3406;49.902;8.596;2024-02-23T12:11:37;9.40;73.40
6738;DHT22;3406;49.902;8.596;2024-02-23T12:14:05;9.40;73.40
6738;DHT22;3406;49.902;8.596;2024-02-23T12:16:33;9.40;73.50
6738;DHT22;3406;49.902;8.596;2024-02-23T12:19:01;9.30;73.70
6738;DHT22;3406;49.902;8.596;2024-02-23T12:21:28;9.20;74.20
6738;DHT22;3406;49.902;8.596;2024-02-23T12:23:55;9.10;74.80
6738;DHT22;3406;49.902;8.596;2024-02-23T12:26:23;9.10;75.50
6738;DHT22;3406;49.902;8.596;2024-02-23T12:28:50;9.10;76.10
6738;DHT22;3406;49.902;8.596;2024-02-23T12:31:23;9.10;76.50
6738;DHT22;3406;49.902;8.596;2024-02-23T12:33:51;9.00;76.70
6738;DHT22;3406;49.902;8.596;2024-02-23T12:36:18;9.00;77.90
6738;DHT22;3406;49.902;8.596;2024-02-23T12:38:44;9.10;77.70
6738;DHT22;3406;49.902;8.596;2024-02-23T12:41:11;9.10;78.10
6738;DHT22;3406;49.902;8.596;2024-02-23T12:43:39;9.10;79.10
6738;DHT22;3406;49.902;8.596;2024-02-23T12:46:06;9.10;78.60
6738;DHT22;3406;49.902;8.596;2024-02-23T12:48:34;9.10;78.70
6738;DHT22;3406;49.902;8.596;2024-02-23T12:51:00;9.10;78.80
6738;DHT22;3406;49.902;8.596;2024-02-23T12:53:32;9.10;79.00
6738;DHT22;3406;49.902;8.596;2024-02-23T12:56:00;9.20;79.30
6738;DHT22;3406;49.902;8.596;2024-02-23T12:58:27;9.30;79.40
6738;DHT22;3406;49.902;8.596;2024-02-23T13:00:58;9.30;79.00
6738;DHT22;3406;49.902;8.596;2024-02-23T13:03:25;9.40;79.10
6738;DHT22;3406;49.902;8.596;2024-02-23T13:05:53;9.50;78.90
6738;DHT22;3406;49.902;8.596;2024-02-23T13:08:21;9.60;78.40
6738;DHT22;3406;49.902;8.596;2024-02-23T13:10:47;9.60;77.90
6738;DHT22;3406;49.902;8.596;2024-02-23T13:13:14;9.60;77.90
6738;DHT22;3406;49.902;8.596;2024-02-23T13:15:41;9.80;77.90
6738;DHT22;3406;49.902;8.596;2024-02-23T13:18:09;9.90;77.50
6738;DHT22;3406;49.902;8.596;2024-02-23T13:20:36;10.00;76.00
6738;DHT22;3406;49.902;8.596;2024-02-23T13:23:03;10.10;75.80
6738;DHT22;3406;49.902;8.596;2024-02-23T13:25:30;10.00;75.20
6738;DHT22;3406;49.902;8.596;2024-02-23T13:27:57;10.10;75.10
6738;DHT22;3406;49.902;8.596;2024-02-23T13:30:24;10.20;75.10
6738;DHT22;3406;49.902;8.596;2024-02-23T13:32:50;10.20;74.60
6738;DHT22;3406;49.902;8.596;2024-02-23T13:35:18;10.30;74.30
6738;DHT22;3406;49.902;8.596;2024-02-23T13:37:45;10.20;74.00
6738;DHT22;3406;49.902;8.596;2024-02-23T13:40:12;10.30;73.60
6738;DHT22;3406;49.902;8.596;2024-02-23T13:42:39;10.20;72.60
6738;DHT22;3406;49.902;8.596;2024-02-23T13:45:07;10.10;72.20
6738;DHT22;3406;49.902;8.596;2024-02-23T13:47:34;10.10;72.20
6738;DHT22;3406;49.902;8.596;2024-02-23T13:50:01;10.10;73.00
6738;DHT22;3406;49.902;8.596;2024-02-23T13:52:29;10.10;72.30
6738;DHT22;3406;49.902;8.596;2024-02-23T13:54:56;10.10;72.40
6738;DHT22;3406;49.902;8.596;2024-02-23T13:57:23;10.10;72.30
6738;DHT22;3406;49.902;8.596;2024-02-23T13:59:50;10.10;72.30
6738;DHT22;3406;49.902;8.596;2024-02-23T14:02:23;10.20;73.10
6738;DHT22;3406;49.902;8.596;2024-02-23T14:04:50;10.30;72.40
6738;DHT22;3406;49.902;8.596;2024-02-23T14:07:17;10.20;72.10
6738;DHT22;3406;49.902;8.596;2024-02-23T14:09:45;10.20;71.80
6738;DHT22;3406;49.902;8.596;2024-02-23T14:12:12;10.20;71.60
6738;DHT22;3406;49.902;8.596;2024-02-23T14:14:38;10.10;71.20
6738;DHT22;3406;49.902;8.596;2024-02-23T14:17:05;10.10;71.30
6738;DHT22;3406;49.902;8.596;2024-02-23T14:19:32;10.10;71.40
6738;DHT22;3406;49.902;8.596;2024-02-23T14:21:58;10.00;71.20
6738;DHT22;3406;49.902;8.596;2024-02-23T14:24:25;10.00;71.20
6738;DHT22;3406;49.902;8.596;2024-02-23T14:26:53;9.90;72.40
6738;DHT22;3406;49.902;8.596;2024-02-23T14:29:19;9.90;73.20
6738;DHT22;3406;49.902;8.596;2024-02-23T14:31:46;9.90;74.10
6738;DHT22;3406;49.902;8.596;2024-02-23T14:34:13;9.90;74.80
6738;DHT22;3406;49.902;8.596;2024-02-23T14:36:39;9.90;75.30
6738;DHT22;3406;49.902;8.596;2024-02-23T14:39:06;9.90;75.60
6738;DHT22;3406;49.902;8.596;2024-02-23T14:41:33;9.90;75.80
6738;DHT22;3406;49.902;8.596;2024-02-23T14:44:01;9.80;75.90
6738;DHT22;3406;49.902;8.596;2024-02-23T14:46:28;9.70;76.00
6738;DHT22;3406;49.902;8.596;2024-02-23T14:48:55;9.60;76.30
6738;DHT22;3406;49.902;8.596;2024-02-23T14:51:22;9.50;76.40
6738;DHT22;3406;49.902;8.596;2024-02-23T14:53:48;9.40;76.60
6738;DHT22;3406;49.902;8.596;2024-02-23T14:56:15;9.40;76.80
6738;DHT22;3406;49.902;8.596;2024-02-23T14:58:41;9.40;77.00
6738;DHT22;3406;49.902;8.596;2024-02-23T15:01:09;9.50;77.20
6738;DHT22;3406;49.902;8.596;2024-02-23T15:03:36;9.70;77.40
6738;DHT22;3406;49.902;8.596;2024-02-23T15:06:03;9.90;77.30
6738;DHT22;3406;49.902;8.596;2024-02-23T15:08:30;10.10;76.00
6738;DHT22;3406;49.902;8.596;2024-02-23T15:10:56;10.30;75.70
6738;DHT22;3406;49.902;8.596;2024-02-23T15:13:23;10.30;75.30
6738;DHT22;3406;49.902;8.596;2024-02-23T15:15:50;10.40;75.20
6738;DHT22;3406;49.902;8.596;2024-02-23T15:18:18;10.40;75.10
6738;DHT22;3406;49.902;8.596;2024-02-23T15:20:45;10.40;75.00
6738;DHT22;3406;49.902;8.596;2024-02-23T15:23:12;10.30;74.70
6738;DHT22;3406;49.902;8.596;2024-02-23T15:25:39;10.30;74.90
6738;DHT22;3406;49.902;8.596;2024-02-23T15:28:06;10.30;75.70
6738;DHT22;3406;49.902;8.596;2024-02-23T15:30:32;10.40;75.10
6738;DHT22;3406;49.902;8.596;2024-02-23T15:32:59;10.30;75.00
6738;DHT22;3406;49.902;8.596;2024-02-23T15:35:27;10.40;75.00
6738;DHT22;3406;49.902;8.596;2024-02-23T15:37:55;10.30;74.80
6738;DHT22;3406;49.902;8.596;2024-02-23T15:40:21;10.20;74.80
6738;DHT22;3406;49.902;8.596;2024-02-23T15:42:48;10.10;74.90
6738;DHT22;3406;49.902;8.596;2024-02-23T15:45:16;10.10;74.90
6738;DHT22;3406;49.902;8.596;2024-02-23T15:47:43;10.10;74.90
6738;DHT22;3406;49.902;8.596;2024-02-23T15:50:09;10.10;74.90
6738;DHT22;3406;49.902;8.596;2024-02-23T15:52:39;10.20;74.90
6738;DHT22;3406;49.902;8.596;2024-02-23T15:55:06;10.20;74.80
6738;DHT22;3406;49.902;8.596;2024-02-23T15:57:36;10.20;74.70
6738;DHT22;3406;49.902;8.596;2024-02-23T16:00:04;10.10;74.40
6738;DHT22;3406;49.902;8.596;2024-02-23T16:02:33;10.00;74.30
6738;DHT22;3406;49.902;8.596;2024-02-23T16:05:00;9.90;75.20
6738;DHT22;3406;49.902;8.596;2024-02-23T16:07:27;9.90;75.30
6738;DHT22;3406;49.902;8.596;2024-02-23T16:09:55;9.80;75.00
6738;DHT22;3406;49.902;8.596;2024-02-23T16:12:22;9.70;75.00
6738;DHT22;3406;49.902;8.596;2024-02-23T16:14:49;9.60;75.10
6738;DHT22;3406;49.902;8.596;2024-02-23T16:17:15;9.60;75.70